sensor_id;sensor_type;location;lat;lon;timestamp;P1;durP1;ratioP1;P2;durP2;ratioP2
18364;SDS011;9309;52.126;11.616;2022-07-29T00:01:22;5.13;;;2.00;;
18364;SDS011;9309;52.126;11.616;2022-07-29T00:03:49;3.27;;;1.83;;
18364;SDS011;9309;52.126;11.616;2022-07-29T00:06:16;6.43;;;2.10;;
18364;SDS011;9309;52.126;11.616;2022-07-29T00:08:44;2.10;;;1.77;;
18364;SDS011;9309;52.126;11.616;2022-07-29T00:11:11;2.07;;;1.73;;
18364;SDS011;9309;52.126;11.616;2022-07-29T00:13:37;3.87;;;1.70;;
18364;SDS011;9309;52.126;11.616;2022-07-29T00:16:04;1.67;;;1.67;;
18364;SDS011;9309;52.126;11.616;2022-07-29T00:18:31;6.77;;;2.30;;
18364;SDS011;9309;52.126;11.616;2022-07-29T00:20:58;3.13;;;1.60;;
18364;SDS011;9309;52.126;11.616;2022-07-29T00:23:25;1.87;;;1.77;;
18364;SDS011;9309;52.126;11.616;2022-07-29T00:25:53;6.33;;;2.00;;
18364;SDS011;9309;52.126;11.616;2022-07-29T00:28:20;2.10;;;1.90;;
18364;SDS011;9309;52.126;11.616;2022-07-29T00:30:46;4.50;;;2.27;;
18364;SDS011;9309;52.126;11.616;2022-07-29T00:33:13;3.10;;;1.80;;
18364;SDS011;9309;52.126;11.616;2022-07-29T00:35:40;2.07;;;1.70;;
18364;SDS011;9309;52.126;11.616;2022-07-29T00:38:08;2.97;;;1.80;;
18364;SDS011;9309;52.126;11.616;2022-07-29T00:40:35;4.37;;;2.10;;
18364;SDS011;9309;52.126;11.616;2022-07-29T00:43:03;3.93;;;2.07;;
18364;SDS011;9309;52.126;11.616;2022-07-29T00:45:30;3.27;;;1.73;;
18364;SDS011;9309;52.126;11.616;2022-07-29T00:47:57;4.83;;;1.90;;
18364;SDS011;9309;52.126;11.616;2022-07-29T00:50:24;4.63;;;2.63;;
18364;SDS011;9309;52.126;11.616;2022-07-29T00:52:51;4.93;;;2.20;;
18364;SDS011;9309;52.126;11.616;2022-07-29T00:55:19;5.13;;;2.10;;
18364;SDS011;9309;52.126;11.616;2022-07-29T00:57:45;5.40;;;2.00;;
18364;SDS011;9309;52.126;11.616;2022-07-29T01:00:15;4.20;;;2.40;;
18364;SDS011;9309;52.126;11.616;2022-07-29T01:02:43;5.17;;;2.20;;
18364;SDS011;9309;52.126;11.616;2022-07-29T01:05:13;2.00;;;1.90;;
18364;SDS011;9309;52.126;11.616;2022-07-29T01:07:42;5.13;;;1.97;;
18364;SDS011;9309;52.126;11.616;2022-07-29T01:10:09;2.50;;;2.00;;
18364;SDS011;9309;52.126;11.616;2022-07-29T01:12:38;3.47;;;2.00;;
18364;SDS011;9309;52.126;11.616;2022-07-29T01:15:06;8.27;;;2.50;;
18364;SDS011;9309;52.126;11.616;2022-07-29T01:17:39;3.80;;;2.17;;
18364;SDS011;9309;52.126;11.616;2022-07-29T01:20:10;5.77;;;2.10;;
18364;SDS011;9309;52.126;11.616;2022-07-29T01:26:04;5.90;;;2.00;;
18364;SDS011;9309;52.126;11.616;2022-07-29T01:28:58;5.63;;;2.20;;
18364;SDS011;9309;52.126;11.616;2022-07-29T01:31:31;10.20;;;2.40;;
18364;SDS011;9309;52.126;11.616;2022-07-29T01:34:05;4.33;;;2.33;;
18364;SDS011;9309;52.126;11.616;2022-07-29T01:36:35;3.23;;;2.00;;
18364;SDS011;9309;52.126;11.616;2022-07-29T01:39:07;4.03;;;2.13;;
18364;SDS011;9309;52.126;11.616;2022-07-29T01:41:38;4.40;;;2.43;;
18364;SDS011;9309;52.126;11.616;2022-07-29T01:44:14;4.23;;;2.20;;
18364;SDS011;9309;52.126;11.616;2022-07-29T01:46:47;4.30;;;2.07;;
18364;SDS011;9309;52.126;11.616;2022-07-29T01:49:20;6.00;;;2.20;;
18364;SDS011;9309;52.126;11.616;2022-07-29T01:51:50;4.20;;;2.10;;
18364;SDS011;9309;52.126;11.616;2022-07-29T01:54:21;5.53;;;2.07;;
18364;SDS011;9309;52.126;11.616;2022-07-29T01:56:55;6.30;;;2.60;;
18364;SDS011;9309;52.126;11.616;2022-07-29T01:59:24;3.73;;;2.20;;
18364;SDS011;9309;52.126;11.616;2022-07-29T02:01:53;3.93;;;2.10;;
18364;SDS011;9309;52.126;11.616;2022-07-29T02:04:21;3.53;;;2.20;;
18364;SDS011;9309;52.126;11.616;2022-07-29T02:06:49;5.23;;;1.80;;
18364;SDS011;9309;52.126;11.616;2022-07-29T02:09:17;3.43;;;2.27;;
18364;SDS011;9309;52.126;11.616;2022-07-29T02:11:49;3.23;;;2.00;;
18364;SDS011;9309;52.126;11.616;2022-07-29T02:14:19;6.80;;;2.00;;
18364;SDS011;9309;52.126;11.616;2022-07-29T02:16:50;5.93;;;2.20;;
18364;SDS011;9309;52.126;11.616;2022-07-29T02:19:21;6.90;;;2.40;;
18364;SDS011;9309;52.126;11.616;2022-07-29T02:21:50;3.20;;;2.03;;
18364;SDS011;9309;52.126;11.616;2022-07-29T02:24:19;10.97;;;2.17;;
18364;SDS011;9309;52.126;11.616;2022-07-29T02:26:48;4.70;;;2.50;;
18364;SDS011;9309;52.126;11.616;2022-07-29T02:29:18;7.67;;;2.33;;
18364;SDS011;9309;52.126;11.616;2022-07-29T02:31:47;3.30;;;2.33;;
18364;SDS011;9309;52.126;11.616;2022-07-29T02:34:17;2.10;;;2.00;;
18364;SDS011;9309;52.126;11.616;2022-07-29T02:36:46;7.67;;;2.53;;
18364;SDS011;9309;52.126;11.616;2022-07-29T02:39:14;5.10;;;2.23;;
18364;SDS011;9309;52.126;11.616;2022-07-29T02:41:42;2.87;;;2.40;;
18364;SDS011;9309;52.126;11.616;2022-07-29T02:44:12;4.30;;;2.40;;
18364;SDS011;9309;52.126;11.616;2022-07-29T02:46:41;5.60;;;2.40;;
18364;SDS011;9309;52.126;11.616;2022-07-29T02:49:15;6.37;;;2.23;;
18364;SDS011;9309;52.126;11.616;2022-07-29T02:51:45;3.10;;;2.33;;
18364;SDS011;9309;52.126;11.616;2022-07-29T02:54:19;3.43;;;2.33;;
18364;SDS011;9309;52.126;11.616;2022-07-29T02:56:50;12.67;;;3.50;;
18364;SDS011;9309;52.126;11.616;2022-07-29T02:59:21;4.97;;;2.30;;
18364;SDS011;9309;52.126;11.616;2022-07-29T03:01:51;5.33;;;2.30;;
18364;SDS011;9309;52.126;11.616;2022-07-29T03:04:21;2.60;;;2.40;;
18364;SDS011;9309;52.126;11.616;2022-07-29T03:06:50;4.60;;;2.33;;
18364;SDS011;9309;52.126;11.616;2022-07-29T03:09:19;6.47;;;2.80;;
18364;SDS011;9309;52.126;11.616;2022-07-29T03:11:47;3.23;;;2.70;;
18364;SDS011;9309;52.126;11.616;2022-07-29T03:14:14;8.40;;;2.70;;
18364;SDS011;9309;52.126;11.616;2022-07-29T03:16:42;3.57;;;2.37;;
18364;SDS011;9309;52.126;11.616;2022-07-29T03:19:09;5.10;;;2.80;;
18364;SDS011;9309;52.126;11.616;2022-07-29T03:21:38;9.90;;;2.70;;
18364;SDS011;9309;52.126;11.616;2022-07-29T03:24:05;8.27;;;2.83;;
18364;SDS011;9309;52.126;11.616;2022-07-29T03:26:32;6.40;;;2.57;;
18364;SDS011;9309;52.126;11.616;2022-07-29T03:28:59;10.50;;;2.97;;
18364;SDS011;9309;52.126;11.616;2022-07-29T03:31:26;7.30;;;2.93;;
18364;SDS011;9309;52.126;11.616;2022-07-29T03:33:53;4.33;;;3.10;;
18364;SDS011;9309;52.126;11.616;2022-07-29T03:36:19;7.87;;;3.07;;
18364;SDS011;9309;52.126;11.616;2022-07-29T03:38:47;5.43;;;2.90;;
18364;SDS011;9309;52.126;11.616;2022-07-29T03:41:15;5.73;;;3.17;;
18364;SDS011;9309;52.126;11.616;2022-07-29T03:43:44;3.40;;;3.10;;
18364;SDS011;9309;52.126;11.616;2022-07-29T03:46:12;5.07;;;3.10;;
18364;SDS011;9309;52.126;11.616;2022-07-29T03:48:42;3.40;;;3.20;;
18364;SDS011;9309;52.126;11.616;2022-07-29T03:51:14;5.53;;;3.53;;
18364;SDS011;9309;52.126;11.616;2022-07-29T03:53:41;3.37;;;2.73;;
18364;SDS011;9309;52.126;11.616;2022-07-29T03:56:09;9.73;;;3.47;;
18364;SDS011;9309;52.126;11.616;2022-07-29T03:58:41;6.53;;;3.23;;
18364;SDS011;9309;52.126;11.616;2022-07-29T04:01:08;7.00;;;3.10;;
18364;SDS011;9309;52.126;11.616;2022-07-29T04:03:35;5.70;;;3.50;;
18364;SDS011;9309;52.126;11.616;2022-07-29T04:06:03;9.63;;;3.43;;
18364;SDS011;9309;52.126;11.616;2022-07-29T04:08:31;7.97;;;3.20;;
18364;SDS011;9309;52.126;11.616;2022-07-29T04:10:59;5.90;;;3.43;;
18364;SDS011;9309;52.126;11.616;2022-07-29T04:13:27;3.70;;;3.30;;
18364;SDS011;9309;52.126;11.616;2022-07-29T04:15:54;4.83;;;3.37;;
18364;SDS011;9309;52.126;11.616;2022-07-29T04:18:20;5.10;;;3.13;;
18364;SDS011;9309;52.126;11.616;2022-07-29T04:20:48;8.43;;;3.53;;
18364;SDS011;9309;52.126;11.616;2022-07-29T04:23:15;5.37;;;3.20;;
18364;SDS011;9309;52.126;11.616;2022-07-29T04:25:42;9.60;;;3.50;;
18364;SDS011;9309;52.126;11.616;2022-07-29T04:28:09;7.67;;;4.17;;
18364;SDS011;9309;52.126;11.616;2022-07-29T04:30:38;5.50;;;3.60;;
18364;SDS011;9309;52.126;11.616;2022-07-29T04:33:06;5.50;;;3.57;;
18364;SDS011;9309;52.126;11.616;2022-07-29T04:35:34;7.27;;;3.30;;
18364;SDS011;9309;52.126;11.616;2022-07-29T04:38:02;7.93;;;3.67;;
18364;SDS011;9309;52.126;11.616;2022-07-29T04:40:29;3.50;;;3.20;;
18364;SDS011;9309;52.126;11.616;2022-07-29T04:42:58;7.07;;;3.47;;
18364;SDS011;9309;52.126;11.616;2022-07-29T04:45:25;7.43;;;3.43;;
18364;SDS011;9309;52.126;11.616;2022-07-29T04:47:53;6.40;;;3.63;;
18364;SDS011;9309;52.126;11.616;2022-07-29T04:50:20;6.10;;;3.60;;
18364;SDS011;9309;52.126;11.616;2022-07-29T04:52:47;9.70;;;3.80;;
18364;SDS011;9309;52.126;11.616;2022-07-29T04:55:14;6.47;;;3.80;;
18364;SDS011;9309;52.126;11.616;2022-07-29T04:57:41;5.07;;;3.50;;
18364;SDS011;9309;52.126;11.616;2022-07-29T05:00:08;10.53;;;3.90;;
18364;SDS011;9309;52.126;11.616;2022-07-29T05:02:36;12.13;;;4.30;;
18364;SDS011;9309;52.126;11.616;2022-07-29T05:05:04;5.63;;;4.20;;
18364;SDS011;9309;52.126;11.616;2022-07-29T05:07:32;4.17;;;3.47;;
18364;SDS011;9309;52.126;11.616;2022-07-29T05:09:58;7.10;;;3.83;;
18364;SDS011;9309;52.126;11.616;2022-07-29T05:12:25;9.03;;;3.80;;
18364;SDS011;9309;52.126;11.616;2022-07-29T05:14:52;6.97;;;3.80;;
18364;SDS011;9309;52.126;11.616;2022-07-29T05:17:19;8.50;;;3.63;;
18364;SDS011;9309;52.126;11.616;2022-07-29T05:19:46;4.80;;;3.90;;
18364;SDS011;9309;52.126;11.616;2022-07-29T05:22:14;7.07;;;3.83;;
18364;SDS011;9309;52.126;11.616;2022-07-29T05:24:41;10.40;;;4.10;;
18364;SDS011;9309;52.126;11.616;2022-07-29T05:27:07;5.13;;;3.83;;
18364;SDS011;9309;52.126;11.616;2022-07-29T05:29:34;10.17;;;3.73;;
18364;SDS011;9309;52.126;11.616;2022-07-29T05:32:01;8.67;;;3.53;;
18364;SDS011;9309;52.126;11.616;2022-07-29T05:34:29;9.57;;;4.27;;
18364;SDS011;9309;52.126;11.616;2022-07-29T05:36:55;4.40;;;3.30;;
18364;SDS011;9309;52.126;11.616;2022-07-29T05:39:23;8.37;;;3.47;;
18364;SDS011;9309;52.126;11.616;2022-07-29T05:41:51;13.00;;;3.67;;
18364;SDS011;9309;52.126;11.616;2022-07-29T05:44:17;7.87;;;3.67;;
18364;SDS011;9309;52.126;11.616;2022-07-29T05:46:44;10.63;;;3.93;;
18364;SDS011;9309;52.126;11.616;2022-07-29T05:49:11;5.30;;;3.43;;
18364;SDS011;9309;52.126;11.616;2022-07-29T05:51:38;8.60;;;3.60;;
18364;SDS011;9309;52.126;11.616;2022-07-29T05:54:05;8.83;;;3.87;;
18364;SDS011;9309;52.126;11.616;2022-07-29T05:56:33;6.87;;;3.87;;
18364;SDS011;9309;52.126;11.616;2022-07-29T05:59:01;7.60;;;3.63;;
18364;SDS011;9309;52.126;11.616;2022-07-29T06:01:28;6.90;;;4.10;;
18364;SDS011;9309;52.126;11.616;2022-07-29T06:03:55;7.53;;;3.60;;
18364;SDS011;9309;52.126;11.616;2022-07-29T06:06:22;7.50;;;3.73;;
18364;SDS011;9309;52.126;11.616;2022-07-29T06:08:49;5.50;;;3.70;;
18364;SDS011;9309;52.126;11.616;2022-07-29T06:11:15;6.20;;;3.50;;
18364;SDS011;9309;52.126;11.616;2022-07-29T06:13:44;6.83;;;3.63;;
18364;SDS011;9309;52.126;11.616;2022-07-29T06:16:10;8.00;;;4.03;;
18364;SDS011;9309;52.126;11.616;2022-07-29T06:18:37;5.97;;;3.63;;
18364;SDS011;9309;52.126;11.616;2022-07-29T06:21:07;7.80;;;3.23;;
18364;SDS011;9309;52.126;11.616;2022-07-29T06:23:35;4.67;;;3.30;;
18364;SDS011;9309;52.126;11.616;2022-07-29T06:26:02;8.77;;;3.77;;
18364;SDS011;9309;52.126;11.616;2022-07-29T06:28:29;8.50;;;3.80;;
18364;SDS011;9309;52.126;11.616;2022-07-29T06:30:57;10.43;;;4.03;;
18364;SDS011;9309;52.126;11.616;2022-07-29T06:33:24;7.83;;;3.60;;
18364;SDS011;9309;52.126;11.616;2022-07-29T06:35:51;8.87;;;3.90;;
18364;SDS011;9309;52.126;11.616;2022-07-29T06:38:17;18.53;;;9.50;;
18364;SDS011;9309;52.126;11.616;2022-07-29T06:40:44;10.70;;;5.40;;
18364;SDS011;9309;52.126;11.616;2022-07-29T06:43:27;7.63;;;3.50;;
18364;SDS011;9309;52.126;11.616;2022-07-29T06:45:59;27.03;;;4.87;;
18364;SDS011;9309;52.126;11.616;2022-07-29T06:48:30;10.10;;;3.97;;
18364;SDS011;9309;52.126;11.616;2022-07-29T06:50:57;6.77;;;3.73;;
18364;SDS011;9309;52.126;11.616;2022-07-29T06:53:24;5.37;;;3.73;;
18364;SDS011;9309;52.126;11.616;2022-07-29T06:55:51;9.20;;;3.90;;
18364;SDS011;9309;52.126;11.616;2022-07-29T06:58:17;8.10;;;3.97;;
18364;SDS011;9309;52.126;11.616;2022-07-29T07:00:53;5.90;;;3.43;;
18364;SDS011;9309;52.126;11.616;2022-07-29T07:03:22;6.70;;;3.53;;
18364;SDS011;9309;52.126;11.616;2022-07-29T07:05:49;6.70;;;3.80;;
18364;SDS011;9309;52.126;11.616;2022-07-29T07:08:17;9.50;;;3.80;;
18364;SDS011;9309;52.126;11.616;2022-07-29T07:10:44;5.67;;;3.73;;
18364;SDS011;9309;52.126;11.616;2022-07-29T07:13:12;11.30;;;3.90;;
18364;SDS011;9309;52.126;11.616;2022-07-29T07:15:39;9.53;;;3.73;;
18364;SDS011;9309;52.126;11.616;2022-07-29T07:18:06;7.67;;;3.67;;
18364;SDS011;9309;52.126;11.616;2022-07-29T07:20:35;7.20;;;3.27;;
18364;SDS011;9309;52.126;11.616;2022-07-29T07:23:02;5.93;;;3.50;;
18364;SDS011;9309;52.126;11.616;2022-07-29T07:25:29;5.87;;;3.33;;
18364;SDS011;9309;52.126;11.616;2022-07-29T07:27:56;14.57;;;3.50;;
18364;SDS011;9309;52.126;11.616;2022-07-29T07:30:23;10.13;;;4.17;;
18364;SDS011;9309;52.126;11.616;2022-07-29T07:32:50;19.50;;;3.90;;
18364;SDS011;9309;52.126;11.616;2022-07-29T07:35:17;9.40;;;3.83;;
18364;SDS011;9309;52.126;11.616;2022-07-29T07:37:45;4.53;;;3.37;;
18364;SDS011;9309;52.126;11.616;2022-07-29T07:40:12;22.27;;;4.03;;
18364;SDS011;9309;52.126;11.616;2022-07-29T07:42:39;15.40;;;4.40;;
18364;SDS011;9309;52.126;11.616;2022-07-29T07:45:07;4.80;;;3.57;;
18364;SDS011;9309;52.126;11.616;2022-07-29T07:47:35;9.90;;;3.93;;
18364;SDS011;9309;52.126;11.616;2022-07-29T07:50:03;10.33;;;3.70;;
18364;SDS011;9309;52.126;11.616;2022-07-29T07:52:30;7.70;;;3.53;;
18364;SDS011;9309;52.126;11.616;2022-07-29T07:54:59;7.47;;;3.83;;
18364;SDS011;9309;52.126;11.616;2022-07-29T07:57:26;11.07;;;3.47;;
18364;SDS011;9309;52.126;11.616;2022-07-29T07:59:53;4.90;;;3.30;;
18364;SDS011;9309;52.126;11.616;2022-07-29T08:02:19;9.97;;;3.90;;
18364;SDS011;9309;52.126;11.616;2022-07-29T08:04:46;11.00;;;3.60;;
18364;SDS011;9309;52.126;11.616;2022-07-29T08:07:13;10.23;;;4.13;;
18364;SDS011;9309;52.126;11.616;2022-07-29T08:09:40;9.43;;;3.30;;
18364;SDS011;9309;52.126;11.616;2022-07-29T08:12:08;5.27;;;3.73;;
18364;SDS011;9309;52.126;11.616;2022-07-29T08:14:35;6.63;;;3.53;;
18364;SDS011;9309;52.126;11.616;2022-07-29T08:17:02;11.93;;;4.00;;
18364;SDS011;9309;52.126;11.616;2022-07-29T08:19:29;5.15;;;3.33;;
18364;SDS011;9309;52.126;11.616;2022-07-29T08:21:56;14.68;;;3.45;;
18364;SDS011;9309;52.126;11.616;2022-07-29T08:24:23;16.88;;;6.07;;
18364;SDS011;9309;52.126;11.616;2022-07-29T08:27:09;8.55;;;3.45;;
18364;SDS011;9309;52.126;11.616;2022-07-29T08:29:36;7.45;;;3.78;;
18364;SDS011;9309;52.126;11.616;2022-07-29T08:32:03;9.85;;;3.83;;
18364;SDS011;9309;52.126;11.616;2022-07-29T08:34:30;10.52;;;4.13;;
18364;SDS011;9309;52.126;11.616;2022-07-29T08:36:57;10.23;;;3.50;;
18364;SDS011;9309;52.126;11.616;2022-07-29T08:39:25;5.15;;;3.53;;
18364;SDS011;9309;52.126;11.616;2022-07-29T08:41:52;13.30;;;3.67;;
18364;SDS011;9309;52.126;11.616;2022-07-29T08:44:21;8.80;;;3.38;;
18364;SDS011;9309;52.126;11.616;2022-07-29T08:46:48;6.00;;;4.00;;
18364;SDS011;9309;52.126;11.616;2022-07-29T08:49:15;8.20;;;3.63;;
18364;SDS011;9309;52.126;11.616;2022-07-29T08:51:42;12.83;;;3.83;;
18364;SDS011;9309;52.126;11.616;2022-07-29T08:54:09;10.80;;;3.43;;
18364;SDS011;9309;52.126;11.616;2022-07-29T08:56:37;7.30;;;3.40;;
18364;SDS011;9309;52.126;11.616;2022-07-29T08:59:06;4.63;;;3.28;;
18364;SDS011;9309;52.126;11.616;2022-07-29T09:01:37;17.50;;;3.95;;
18364;SDS011;9309;52.126;11.616;2022-07-29T09:04:05;12.25;;;3.75;;
18364;SDS011;9309;52.126;11.616;2022-07-29T09:06:37;13.20;;;4.07;;
18364;SDS011;9309;52.126;11.616;2022-07-29T09:09:09;5.22;;;4.03;;
18364;SDS011;9309;52.126;11.616;2022-07-29T09:11:36;6.93;;;3.22;;
18364;SDS011;9309;52.126;11.616;2022-07-29T09:14:03;5.03;;;3.50;;
18364;SDS011;9309;52.126;11.616;2022-07-29T09:16:52;7.13;;;3.20;;
18364;SDS011;9309;52.126;11.616;2022-07-29T09:19:23;4.82;;;3.28;;
18364;SDS011;9309;52.126;11.616;2022-07-29T09:21:54;8.00;;;3.83;;
18364;SDS011;9309;52.126;11.616;2022-07-29T09:24:36;11.73;;;3.50;;
18364;SDS011;9309;52.126;11.616;2022-07-29T09:27:08;14.52;;;4.03;;
18364;SDS011;9309;52.126;11.616;2022-07-29T09:29:47;8.82;;;4.00;;
18364;SDS011;9309;52.126;11.616;2022-07-29T09:32:23;8.98;;;3.45;;
18364;SDS011;9309;52.126;11.616;2022-07-29T09:34:51;6.53;;;3.47;;
18364;SDS011;9309;52.126;11.616;2022-07-29T09:37:39;9.32;;;3.83;;
18364;SDS011;9309;52.126;11.616;2022-07-29T09:40:11;7.88;;;3.17;;
18364;SDS011;9309;52.126;11.616;2022-07-29T09:42:38;4.05;;;3.10;;
18364;SDS011;9309;52.126;11.616;2022-07-29T09:45:05;10.82;;;3.45;;
18364;SDS011;9309;52.126;11.616;2022-07-29T09:47:41;12.10;;;3.45;;
18364;SDS011;9309;52.126;11.616;2022-07-29T09:50:11;5.47;;;2.65;;
18364;SDS011;9309;52.126;11.616;2022-07-29T09:52:45;8.02;;;3.33;;
18364;SDS011;9309;52.126;11.616;2022-07-29T09:55:13;7.30;;;2.90;;
18364;SDS011;9309;52.126;11.616;2022-07-29T09:57:41;7.57;;;3.15;;
18364;SDS011;9309;52.126;11.616;2022-07-29T10:00:10;12.48;;;2.70;;
18364;SDS011;9309;52.126;11.616;2022-07-29T10:02:39;5.25;;;2.67;;
18364;SDS011;9309;52.126;11.616;2022-07-29T10:05:16;4.88;;;3.00;;
18364;SDS011;9309;52.126;11.616;2022-07-29T10:07:45;10.15;;;3.42;;
18364;SDS011;9309;52.126;11.616;2022-07-29T10:10:18;5.53;;;3.10;;
18364;SDS011;9309;52.126;11.616;2022-07-29T10:12:51;5.85;;;3.05;;
18364;SDS011;9309;52.126;11.616;2022-07-29T10:15:20;4.30;;;2.60;;
18364;SDS011;9309;52.126;11.616;2022-07-29T10:17:50;6.43;;;2.65;;
18364;SDS011;9309;52.126;11.616;2022-07-29T10:20:18;8.30;;;2.58;;
18364;SDS011;9309;52.126;11.616;2022-07-29T10:22:46;8.13;;;2.83;;
18364;SDS011;9309;52.126;11.616;2022-07-29T10:25:13;7.30;;;2.40;;
18364;SDS011;9309;52.126;11.616;2022-07-29T10:27:41;3.28;;;2.22;;
18364;SDS011;9309;52.126;11.616;2022-07-29T10:30:09;4.43;;;2.50;;
18364;SDS011;9309;52.126;11.616;2022-07-29T10:32:39;7.05;;;2.30;;
18364;SDS011;9309;52.126;11.616;2022-07-29T10:35:26;3.00;;;2.70;;
18364;SDS011;9309;52.126;11.616;2022-07-29T10:41:03;6.15;;;2.75;;
18364;SDS011;9309;52.126;11.616;2022-07-29T10:43:55;3.53;;;2.10;;
18364;SDS011;9309;52.126;11.616;2022-07-29T10:46:24;10.63;;;3.05;;
18364;SDS011;9309;52.126;11.616;2022-07-29T10:49:04;11.02;;;3.05;;
18364;SDS011;9309;52.126;11.616;2022-07-29T10:54:38;4.78;;;2.10;;
18364;SDS011;9309;52.126;11.616;2022-07-29T10:57:11;5.90;;;1.90;;
18364;SDS011;9309;52.126;11.616;2022-07-29T10:59:39;5.43;;;2.33;;
18364;SDS011;9309;52.126;11.616;2022-07-29T11:05:08;2.22;;;1.85;;
18364;SDS011;9309;52.126;11.616;2022-07-29T11:07:38;7.75;;;2.53;;
18364;SDS011;9309;52.126;11.616;2022-07-29T11:10:25;5.18;;;1.90;;
18364;SDS011;9309;52.126;11.616;2022-07-29T11:12:52;3.03;;;1.98;;
18364;SDS011;9309;52.126;11.616;2022-07-29T11:15:20;4.82;;;1.73;;
18364;SDS011;9309;52.126;11.616;2022-07-29T11:18:08;5.80;;;2.08;;
18364;SDS011;9309;52.126;11.616;2022-07-29T11:20:38;2.35;;;2.10;;
18364;SDS011;9309;52.126;11.616;2022-07-29T11:28:49;2.38;;;1.63;;
18364;SDS011;9309;52.126;11.616;2022-07-29T11:31:34;4.97;;;2.20;;
18364;SDS011;9309;52.126;11.616;2022-07-29T11:34:19;2.20;;;1.98;;
18364;SDS011;9309;52.126;11.616;2022-07-29T11:40:07;2.15;;;2.00;;
18364;SDS011;9309;52.126;11.616;2022-07-29T11:42:41;3.85;;;1.65;;
18364;SDS011;9309;52.126;11.616;2022-07-29T11:45:26;2.97;;;1.80;;
18364;SDS011;9309;52.126;11.616;2022-07-29T11:48:15;2.28;;;2.08;;
18364;SDS011;9309;52.126;11.616;2022-07-29T11:50:43;4.63;;;2.00;;
18364;SDS011;9309;52.126;11.616;2022-07-29T11:53:11;3.13;;;1.95;;
18364;SDS011;9309;52.126;11.616;2022-07-29T11:55:40;6.13;;;2.10;;
18364;SDS011;9309;52.126;11.616;2022-07-29T11:58:07;1.95;;;1.85;;
18364;SDS011;9309;52.126;11.616;2022-07-29T12:00:35;2.78;;;1.90;;
18364;SDS011;9309;52.126;11.616;2022-07-29T12:03:04;2.58;;;2.10;;
18364;SDS011;9309;52.126;11.616;2022-07-29T12:05:34;2.30;;;2.08;;
18364;SDS011;9309;52.126;11.616;2022-07-29T12:08:12;2.35;;;2.15;;
18364;SDS011;9309;52.126;11.616;2022-07-29T12:10:41;3.03;;;2.10;;
18364;SDS011;9309;52.126;11.616;2022-07-29T12:13:10;2.35;;;2.17;;
18364;SDS011;9309;52.126;11.616;2022-07-29T12:15:37;3.50;;;1.80;;
18364;SDS011;9309;52.126;11.616;2022-07-29T12:18:13;3.05;;;2.15;;
18364;SDS011;9309;52.126;11.616;2022-07-29T12:20:41;3.53;;;2.08;;
18364;SDS011;9309;52.126;11.616;2022-07-29T12:23:09;4.57;;;2.00;;
18364;SDS011;9309;52.126;11.616;2022-07-29T12:25:38;4.53;;;2.30;;
18364;SDS011;9309;52.126;11.616;2022-07-29T12:28:08;7.50;;;2.20;;
18364;SDS011;9309;52.126;11.616;2022-07-29T12:30:39;4.35;;;2.00;;
18364;SDS011;9309;52.126;11.616;2022-07-29T12:33:11;2.92;;;2.15;;
18364;SDS011;9309;52.126;11.616;2022-07-29T12:35:44;2.38;;;2.10;;
18364;SDS011;9309;52.126;11.616;2022-07-29T12:38:13;3.92;;;2.10;;
18364;SDS011;9309;52.126;11.616;2022-07-29T12:40:41;2.30;;;2.10;;
18364;SDS011;9309;52.126;11.616;2022-07-29T12:43:10;2.05;;;1.90;;
18364;SDS011;9309;52.126;11.616;2022-07-29T12:45:38;2.15;;;1.95;;
18364;SDS011;9309;52.126;11.616;2022-07-29T12:48:06;4.22;;;2.20;;
18364;SDS011;9309;52.126;11.616;2022-07-29T12:50:34;4.00;;;2.25;;
18364;SDS011;9309;52.126;11.616;2022-07-29T12:53:08;3.60;;;2.33;;
18364;SDS011;9309;52.126;11.616;2022-07-29T12:55:42;3.83;;;2.50;;
18364;SDS011;9309;52.126;11.616;2022-07-29T12:58:13;5.15;;;2.25;;
18364;SDS011;9309;52.126;11.616;2022-07-29T13:00:58;4.25;;;2.10;;
18364;SDS011;9309;52.126;11.616;2022-07-29T13:03:26;4.53;;;2.20;;
18364;SDS011;9309;52.126;11.616;2022-07-29T13:05:54;3.08;;;2.30;;
18364;SDS011;9309;52.126;11.616;2022-07-29T13:08:21;2.53;;;2.20;;
18364;SDS011;9309;52.126;11.616;2022-07-29T13:10:50;6.05;;;2.08;;
18364;SDS011;9309;52.126;11.616;2022-07-29T13:13:16;4.57;;;2.30;;
18364;SDS011;9309;52.126;11.616;2022-07-29T13:15:44;3.53;;;2.13;;
18364;SDS011;9309;52.126;11.616;2022-07-29T13:18:28;2.63;;;1.98;;
18364;SDS011;9309;52.126;11.616;2022-07-29T13:20:56;2.60;;;2.22;;
18364;SDS011;9309;52.126;11.616;2022-07-29T13:23:35;9.15;;;2.20;;
18364;SDS011;9309;52.126;11.616;2022-07-29T13:26:06;4.15;;;1.95;;
18364;SDS011;9309;52.126;11.616;2022-07-29T13:28:33;2.00;;;1.90;;
18364;SDS011;9309;52.126;11.616;2022-07-29T13:31:00;4.00;;;2.08;;
18364;SDS011;9309;52.126;11.616;2022-07-29T13:33:27;5.70;;;2.20;;
18364;SDS011;9309;52.126;11.616;2022-07-29T13:35:55;4.65;;;1.90;;
18364;SDS011;9309;52.126;11.616;2022-07-29T13:38:22;3.05;;;1.90;;
18364;SDS011;9309;52.126;11.616;2022-07-29T13:40:48;1.85;;;1.73;;
18364;SDS011;9309;52.126;11.616;2022-07-29T13:43:17;5.40;;;2.53;;
18364;SDS011;9309;52.126;11.616;2022-07-29T13:45:44;4.15;;;2.03;;
18364;SDS011;9309;52.126;11.616;2022-07-29T13:48:10;2.47;;;2.25;;
18364;SDS011;9309;52.126;11.616;2022-07-29T13:50:37;6.82;;;1.90;;
18364;SDS011;9309;52.126;11.616;2022-07-29T13:53:04;4.32;;;2.08;;
18364;SDS011;9309;52.126;11.616;2022-07-29T13:55:31;2.80;;;2.30;;
18364;SDS011;9309;52.126;11.616;2022-07-29T13:57:57;1.98;;;1.92;;
18364;SDS011;9309;52.126;11.616;2022-07-29T14:00:25;3.83;;;2.03;;
18364;SDS011;9309;52.126;11.616;2022-07-29T14:02:52;2.97;;;1.98;;
18364;SDS011;9309;52.126;11.616;2022-07-29T14:05:19;7.25;;;2.05;;
18364;SDS011;9309;52.126;11.616;2022-07-29T14:07:46;2.28;;;1.92;;
18364;SDS011;9309;52.126;11.616;2022-07-29T14:10:12;2.08;;;1.65;;
18364;SDS011;9309;52.126;11.616;2022-07-29T14:12:39;2.28;;;1.90;;
18364;SDS011;9309;52.126;11.616;2022-07-29T14:15:07;3.53;;;1.75;;
18364;SDS011;9309;52.126;11.616;2022-07-29T14:17:36;5.18;;;1.92;;
18364;SDS011;9309;52.126;11.616;2022-07-29T14:20:03;2.92;;;1.83;;
18364;SDS011;9309;52.126;11.616;2022-07-29T14:22:30;4.50;;;1.92;;
18364;SDS011;9309;52.126;11.616;2022-07-29T14:24:58;4.97;;;2.17;;
18364;SDS011;9309;52.126;11.616;2022-07-29T14:27:25;1.73;;;1.63;;
18364;SDS011;9309;52.126;11.616;2022-07-29T14:29:51;2.95;;;1.85;;
18364;SDS011;9309;52.126;11.616;2022-07-29T14:32:18;2.15;;;2.05;;
18364;SDS011;9309;52.126;11.616;2022-07-29T14:34:46;5.78;;;1.77;;
18364;SDS011;9309;52.126;11.616;2022-07-29T14:37:13;2.30;;;1.90;;
18364;SDS011;9309;52.126;11.616;2022-07-29T14:39:40;3.22;;;2.10;;
18364;SDS011;9309;52.126;11.616;2022-07-29T14:42:06;4.95;;;2.15;;
18364;SDS011;9309;52.126;11.616;2022-07-29T14:44:34;4.38;;;2.10;;
18364;SDS011;9309;52.126;11.616;2022-07-29T14:47:00;3.92;;;2.30;;
18364;SDS011;9309;52.126;11.616;2022-07-29T14:49:27;6.32;;;2.15;;
18364;SDS011;9309;52.126;11.616;2022-07-29T14:51:56;4.68;;;2.10;;
18364;SDS011;9309;52.126;11.616;2022-07-29T14:54:22;2.95;;;2.35;;
18364;SDS011;9309;52.126;11.616;2022-07-29T14:56:49;3.28;;;2.10;;
18364;SDS011;9309;52.126;11.616;2022-07-29T14:59:18;1.92;;;1.85;;
18364;SDS011;9309;52.126;11.616;2022-07-29T15:01:45;1.92;;;1.83;;
18364;SDS011;9309;52.126;11.616;2022-07-29T15:04:11;3.15;;;2.00;;
18364;SDS011;9309;52.126;11.616;2022-07-29T15:06:38;3.75;;;2.00;;
18364;SDS011;9309;52.126;11.616;2022-07-29T15:09:06;2.08;;;1.98;;
18364;SDS011;9309;52.126;11.616;2022-07-29T15:11:33;4.18;;;2.45;;
18364;SDS011;9309;52.126;11.616;2022-07-29T15:14:00;2.17;;;2.05;;
18364;SDS011;9309;52.126;11.616;2022-07-29T15:16:27;3.28;;;2.10;;
18364;SDS011;9309;52.126;11.616;2022-07-29T15:18:53;6.72;;;2.28;;